Time;durP1;ratioP1;P1;durP2;ratioP2;P2;SDS_P1;SDS_P2;PMS_P1;PMS_P2;Temp;Humidity;BMP_temperature;BMP_pressure;BME280_temperature;BME280_humidity;BME280_pressure;Samples;Min_cycle;Max_cycle;Signal;HPM_P1;HPM_P2
2021/09/15 00:01:09;;;;;;;40.92;29.58;;;;;;;17.88;87.67;101019.44;5011373;28;20026;-43
2021/09/15 00:03:37;;;;;;;44.15;30.13;;;;;;;17.90;87.62;101018.13;5011235;28;20033;-44
2021/09/15 00:06:04;;;;;;;47.65;32.92;;;;;;;17.90;87.48;101018.13;5012088;28;20473;-44
2021/09/15 00:08:29;;;;;;;49.40;32.85;;;;;;;17.94;87.50;101013.06;5011911;28;20389;-44
2021/09/15 00:10:55;;;;;;;53.22;33.30;;;;;;;17.97;87.61;101023.50;5011920;28;20038;-44
2021/09/15 00:13:20;;;;;;;53.75;34.72;;;;;;;18.03;87.45;101021.75;5013265;28;20501;-44
2021/09/15 00:15:46;;;;;;;60.05;36.15;;;;;;;18.05;87.21;101008.75;5015747;28;20030;-43
2021/09/15 00:18:11;;;;;;;65.22;38.90;;;;;;;18.06;87.45;101008.53;5014811;28;20129;-45
2021/09/15 00:20:36;;;;;;;68.32;41.45;;;;;;;18.06;87.60;101005.81;5014708;28;20160;-43
2021/09/15 00:23:02;;;;;;;69.82;43.08;;;;;;;18.10;87.48;101004.28;5014802;28;20053;-44
2021/09/15 00:25:27;;;;;;;76.07;43.50;;;;;;;18.09;87.34;101008.09;5014770;28;20034;-44
2021/09/15 00:27:53;;;;;;;64.22;40.67;;;;;;;18.14;87.25;101001.94;5014553;28;20385;-44
2021/09/15 00:30:18;;;;;;;75.63;44.65;;;;;;;18.13;87.40;101000.28;5014335;28;20022;-44
2021/09/15 00:32:43;;;;;;;75.38;44.90;;;;;;;18.09;87.29;101002.63;5014588;28;20022;-44
2021/09/15 00:35:09;;;;;;;72.45;45.90;;;;;;;18.07;87.37;101002.03;5014758;28;20025;-44
2021/09/15 00:37:35;;;;;;;73.45;46.97;;;;;;;18.04;87.46;100999.75;5014443;28;20057;-44
2021/09/15 00:40:00;;;;;;;78.60;47.22;;;;;;;18.01;87.47;101000.22;5014570;28;20065;-43
2021/09/15 00:42:26;;;;;;;73.47;44.75;;;;;;;17.98;87.67;101000.66;5014062;28;20050;-42
2021/09/15 00:44:52;;;;;;;80.53;46.92;;;;;;;17.94;87.94;101002.19;5014119;28;20058;-43
2021/09/15 00:47:18;;;;;;;78.88;46.08;;;;;;;17.90;87.86;101011.84;5014450;28;20022;-43
2021/09/15 00:49:43;;;;;;;74.85;46.53;;;;;;;17.88;87.68;101008.53;5013633;28;20050;-44
2021/09/15 00:52:08;;;;;;;76.63;46.15;;;;;;;17.85;87.78;101003.53;5014158;28;20026;-42
2021/09/15 00:54:34;;;;;;;70.32;43.97;;;;;;;17.81;87.65;101002.31;5014077;28;20440;-43
2021/09/15 00:56:59;;;;;;;75.60;47.17;;;;;;;17.75;87.75;101001.31;5016838;28;20028;-43
2021/09/15 00:59:25;;;;;;;77.50;46.75;;;;;;;17.71;87.99;101000.91;5014048;28;20061;-43
2021/09/15 01:01:50;;;;;;;76.68;45.83;;;;;;;17.66;88.08;100998.03;5013781;28;20535;-44
2021/09/15 01:04:15;;;;;;;73.93;44.85;;;;;;;17.62;88.25;100998.72;5013861;28;20080;-44
2021/09/15 01:06:43;;;;;;;75.00;44.95;;;;;;;17.58;88.28;100992.88;5029052;28;20461;-44
2021/09/15 01:09:08;;;;;;;79.03;45.97;;;;;;;17.55;88.24;100993.34;5013756;28;20074;-44
2021/09/15 01:11:35;;;;;;;76.95;46.47;;;;;;;17.53;88.53;100990.00;5013647;28;20110;-43
2021/09/15 01:14:01;;;;;;;74.18;45.60;;;;;;;17.50;88.32;100991.28;5013562;28;20515;-44
2021/09/15 01:16:27;;;;;;;73.90;45.77;;;;;;;17.48;88.47;100992.56;5013493;28;20500;-44
2021/09/15 01:18:52;;;;;;;74.38;45.58;;;;;;;17.46;88.44;100992.81;5013534;28;20030;-44
2021/09/15 01:21:18;;;;;;;71.07;42.63;;;;;;;17.46;88.37;100998.25;5013575;28;20053;-44
2021/09/15 01:23:43;;;;;;;74.55;44.65;;;;;;;17.46;88.42;100992.81;5013510;28;20069;-43
2021/09/15 01:26:08;;;;;;;73.63;46.08;;;;;;;17.45;88.12;100993.00;5013437;28;20036;-43
2021/09/15 01:28:34;;;;;;;71.28;44.15;;;;;;;17.43;88.26;100995.97;5013256;28;20042;-44
2021/09/15 01:30:59;;;;;;;71.03;43.72;;;;;;;17.42;88.25;100998.91;5013304;28;20026;-43
2021/09/15 01:33:24;;;;;;;72.88;46.45;;;;;;;17.39;88.02;100989.31;5013748;28;20030;-44
2021/09/15 01:35:50;;;;;;;69.55;44.08;;;;;;;17.38;88.38;100982.22;5013599;28;20487;-43
2021/09/15 01:38:15;;;;;;;72.20;45.45;;;;;;;17.35;88.12;100982.63;5013070;28;20045;-44
2021/09/15 01:40:41;;;;;;;72.05;44.60;;;;;;;17.34;88.17;100981.81;5013801;28;20041;-43
2021/09/15 01:43:07;;;;;;;72.07;44.55;;;;;;;17.31;88.12;100982.25;5013174;28;20018;-43
2021/09/15 01:45:32;;;;;;;66.75;41.83;;;;;;;17.28;88.21;100979.97;5013362;28;20026;-44
2021/09/15 01:47:58;;;;;;;70.40;42.83;;;;;;;17.24;87.91;100976.03;5013267;28;20385;-44
2021/09/15 01:50:23;;;;;;;72.15;43.92;;;;;;;17.21;87.92;100970.22;5012890;28;20053;-43
2021/09/15 01:52:49;;;;;;;68.35;42.03;;;;;;;17.15;87.98;100982.81;5013091;28;20022;-44
2021/09/15 01:55:28;;;;;;;69.82;43.83;;;;;;;17.11;88.35;100976.16;5012926;28;20434;-44
2021/09/15 01:57:53;;;;;;;77.63;44.95;;;;;;;17.07;88.38;100974.94;5013097;28;20083;-44
2021/09/15 02:00:19;;;;;;;72.05;43.53;;;;;;;17.06;88.26;100979.56;5012746;28;20108;-43
2021/09/15 02:02:50;;;;;;;70.03;43.17;;;;;;;17.01;88.12;100981.25;5012851;28;20033;-43
2021/09/15 02:05:16;;;;;;;69.32;44.65;;;;;;;17.00;88.29;100979.59;5013131;28;20026;-43
2021/09/15 02:07:41;;;;;;;74.38;43.33;;;;;;;16.98;88.42;100976.25;5012928;28;20041;-43
2021/09/15 02:10:07;;;;;;;79.18;44.17;;;;;;;16.97;88.39;100977.31;5012862;28;20029;-43
2021/09/15 02:12:33;;;;;;;83.13;45.97;;;;;;;16.96;88.62;100979.22;5012511;28;20032;-43
2021/09/15 02:14:59;;;;;;;78.32;47.17;;;;;;;16.94;88.67;100973.16;5012944;28;20034;-44
2021/09/15 02:17:24;;;;;;;69.53;42.85;;;;;;;16.94;88.68;100969.63;5012869;28;20026;-43
2021/09/15 02:19:49;;;;;;;67.53;42.72;;;;;;;16.94;88.38;100975.06;5012569;28;20117;-43
2021/09/15 02:22:15;;;;;;;68.72;44.28;;;;;;;16.93;88.43;100978.81;5012398;28;20133;-43
2021/09/15 02:24:40;;;;;;;69.95;43.28;;;;;;;16.88;88.42;100983.03;5012481;28;20495;-44
2021/09/15 02:27:06;;;;;;;68.68;43.53;;;;;;;16.85;88.46;100978.03;5027512;28;20111;-45
2021/09/15 02:29:31;;;;;;;70.88;44.00;;;;;;;16.80;88.32;100977.88;5010835;28;20056;-43
2021/09/15 02:31:56;;;;;;;71.45;42.75;;;;;;;16.79;88.50;100978.91;5012631;28;20075;-43
2021/09/15 02:34:22;;;;;;;70.68;43.95;;;;;;;16.78;88.47;100979.13;5012471;28;20081;-44
2021/09/15 02:36:47;;;;;;;72.00;43.42;;;;;;;16.75;88.45;100977.66;5011747;28;20033;-43
2021/09/15 02:39:12;;;;;;;69.60;42.03;;;;;;;16.74;88.45;100970.53;5012692;28;20029;-43
2021/09/15 02:41:38;;;;;;;72.68;44.03;;;;;;;16.73;88.46;100979.75;5012180;28;20104;-44
2021/09/15 02:44:03;;;;;;;69.88;44.58;;;;;;;16.71;88.76;100976.41;5011529;28;20065;-44
2021/09/15 02:46:31;;;;;;;74.90;45.08;;;;;;;16.69;88.58;100967.66;5012264;28;20022;-43
2021/09/15 02:48:57;;;;;;;73.07;45.35;;;;;;;16.68;88.62;100972.25;5011673;28;20060;-43
2021/09/15 02:51:22;;;;;;;67.50;42.67;;;;;;;16.67;88.56;100967.88;5012274;28;20026;-44
2021/09/15 02:53:48;;;;;;;72.13;44.47;;;;;;;16.65;88.55;100966.44;5011823;28;20120;-43
2021/09/15 02:56:13;;;;;;;76.40;44.92;;;;;;;16.64;88.62;100965.59;5012177;28;20026;-43
2021/09/15 02:58:38;;;;;;;75.57;43.65;;;;;;;16.66;88.74;100965.38;5012079;28;20515;-44
2021/09/15 03:01:04;;;;;;;72.50;44.10;;;;;;;16.68;88.78;100966.81;5011657;28;20462;-43
2021/09/15 03:03:29;;;;;;;75.28;42.75;;;;;;;16.71;88.61;100960.09;5026673;28;20033;-43
2021/09/15 03:05:54;;;;;;;72.93;44.65;;;;;;;16.75;88.64;100960.53;5011991;28;20088;-43
2021/09/15 03:08:19;;;;;;;78.50;44.60;;;;;;;16.77;88.45;100963.84;5012052;28;20030;-43
2021/09/15 03:10:45;;;;;;;64.05;40.88;;;;;;;16.79;88.44;100957.16;5011928;28;20572;-43
2021/09/15 03:13:10;;;;;;;63.20;39.10;;;;;;;16.83;88.27;100946.69;5011693;28;20172;-43
2021/09/15 03:15:35;;;;;;;71.07;42.17;;;;;;;16.83;88.12;100947.53;5011998;28;20460;-43
2021/09/15 03:18:01;;;;;;;71.40;44.75;;;;;;;16.82;88.11;100945.84;5011953;28;20073;-42
2021/09/15 03:20:26;;;;;;;77.22;43.88;;;;;;;16.79;88.29;100943.56;5011882;28;20146;-42
2021/09/15 03:22:52;;;;;;;72.63;43.88;;;;;;;16.74;88.39;100946.06;5011925;28;20042;-43
2021/09/15 03:25:17;;;;;;;80.88;46.65;;;;;;;16.70;88.70;100944.88;5012791;28;20022;-43
2021/09/15 03:27:42;;;;;;;75.68;45.67;;;;;;;16.65;88.69;100937.38;5011856;28;20042;-43
2021/09/15 03:30:08;;;;;;;74.95;46.60;;;;;;;16.62;88.56;100934.28;5011566;28;20033;-42
2021/09/15 03:32:34;;;;;;;82.80;47.08;;;;;;;16.58;88.86;100933.03;5012080;28;20076;-44
2021/09/15 03:34:59;;;;;;;77.70;45.20;;;;;;;16.55;88.91;100928.03;5011595;28;20481;-42
2021/09/15 03:37:25;;;;;;;76.82;45.30;;;;;;;16.54;88.71;100929.09;5011486;28;20026;-42
2021/09/15 03:39:50;;;;;;;84.72;49.53;;;;;;;16.50;88.99;100925.16;5011949;28;20040;-43
2021/09/15 03:42:15;;;;;;;90.63;49.17;;;;;;;16.46;88.90;100925.59;5011492;28;20026;-43
2021/09/15 03:44:41;;;;;;;85.82;49.03;;;;;;;16.42;89.04;100932.50;5011948;28;20042;-43
2021/09/15 03:47:06;;;;;;;83.82;49.05;;;;;;;16.42;89.57;100937.09;5011425;28;20489;-44
2021/09/15 03:49:32;;;;;;;81.55;47.88;;;;;;;16.38;88.97;100938.59;5015092;28;20054;-43
2021/09/15 03:51:57;;;;;;;84.80;48.75;;;;;;;16.37;88.92;100937.75;5015483;28;20512;-42
2021/09/15 03:54:22;;;;;;;82.22;48.30;;;;;;;16.34;89.09;100951.78;5015181;28;20040;-44
2021/09/15 03:56:48;;;;;;;92.28;51.90;;;;;;;16.31;89.61;100948.66;5015304;28;20495;-43
2021/09/15 03:59:13;;;;;;;97.28;52.50;;;;;;;16.28;89.63;100958.06;5014977;28;20028;-42
2021/09/15 04:01:38;;;;;;;113.00;59.90;;;;;;;16.30;90.10;100947.84;5014710;28;20030;-42
2021/09/15 04:04:04;;;;;;;104.47;58.70;;;;;;;16.32;90.54;100945.72;5016105;28;20036;-43
2021/09/15 04:06:29;;;;;;;107.15;57.95;;;;;;;16.31;90.47;100949.50;5030171;28;20041;-42
2021/09/15 04:08:55;;;;;;;101.00;56.55;;;;;;;16.31;90.18;100957.63;5014972;28;20033;-42
2021/09/15 04:11:20;;;;;;;127.18;65.60;;;;;;;16.37;90.92;100961.38;5014474;28;20172;-42
2021/09/15 04:13:45;;;;;;;121.97;62.30;;;;;;;16.41;91.15;100955.28;5014640;28;20113;-42
2021/09/15 04:16:11;;;;;;;127.38;65.22;;;;;;;16.46;91.29;100952.75;5015273;28;20030;-42
2021/09/15 04:18:36;;;;;;;120.90;61.15;;;;;;;16.50;91.11;100952.31;5014481;28;20029;-43
2021/09/15 04:21:01;;;;;;;122.25;60.20;;;;;;;16.54;90.99;100953.56;5014965;28;20029;-43
2021/09/15 04:23:32;;;;;;;127.53;62.83;;;;;;;16.57;90.64;100953.13;5013155;28;20028;-43
2021/09/15 04:31:26;;;;;;;109.07;53.65;;;;;;;16.65;89.88;100947.41;5013198;28;20033;-43
2021/09/15 04:33:52;;;;;;;98.32;53.72;;;;;;;16.66;89.76;100949.06;5026799;28;20030;-44
2021/09/15 04:36:18;;;;;;;102.75;55.63;;;;;;;16.65;89.68;100950.94;5011943;28;20030;-45
2021/09/15 04:38:44;;;;;;;105.55;55.28;;;;;;;16.64;89.93;100949.31;5010464;28;20608;-43
2021/09/15 04:41:10;;;;;;;106.20;55.97;;;;;;;16.63;90.00;100942.19;5006692;28;20029;-44
2021/09/15 04:43:35;;;;;;;107.97;57.28;;;;;;;16.65;90.13;100945.53;5002298;28;20038;-43
2021/09/15 04:46:00;;;;;;;104.75;56.22;;;;;;;16.68;89.91;100941.53;5004074;28;20395;-43
2021/09/15 04:48:26;;;;;;;106.20;54.45;;;;;;;16.72;89.82;100942.78;5013830;28;20105;-43
2021/09/15 04:50:51;;;;;;;102.10;54.17;;;;;;;16.72;89.68;100955.50;5013458;28;20141;-43
2021/09/15 04:53:17;;;;;;;102.47;53.95;;;;;;;16.73;89.95;100955.28;5010328;28;20022;-42
2021/09/15 04:55:42;;;;;;;110.95;56.58;;;;;;;16.76;90.01;100954.03;5013937;28;20026;-43
2021/09/15 04:58:07;;;;;;;101.32;55.85;;;;;;;16.80;89.92;100944.41;5012095;28;20388;-43
2021/09/15 05:00:33;;;;;;;122.35;60.22;;;;;;;16.84;89.85;100943.75;5013366;28;20109;-44
2021/09/15 05:02:59;;;;;;;122.18;57.47;;;;;;;16.86;89.66;100941.63;5013118;28;20044;-43
2021/09/15 05:05:25;;;;;;;118.22;59.85;;;;;;;16.84;89.69;100949.16;5013830;28;20315;-43
2021/09/15 05:07:50;;;;;;;106.35;55.15;;;;;;;16.82;89.51;100943.13;5011592;28;20034;-42
2021/09/15 05:10:15;;;;;;;111.78;56.58;;;;;;;16.81;89.60;100937.91;5009876;28;20101;-44
2021/09/15 05:12:41;;;;;;;117.28;57.88;;;;;;;16.79;89.68;100943.56;5008027;28;20080;-43
2021/09/15 05:15:07;;;;;;;112.40;56.97;;;;;;;16.78;89.43;100947.34;5013590;28;20113;-44
2021/09/15 05:17:32;;;;;;;121.07;57.17;;;;;;;16.78;89.90;100944.63;5013265;28;20034;-43
2021/09/15 05:19:57;;;;;;;117.63;57.53;;;;;;;16.78;89.84;100952.78;5024015;28;20037;-43
2021/09/15 05:22:23;;;;;;;118.97;58.20;;;;;;;16.76;89.77;100952.13;5012085;28;20049;-44
2021/09/15 05:24:48;;;;;;;132.15;61.35;;;;;;;16.76;89.68;100959.47;5009048;28;20019;-43
2021/09/15 05:27:13;;;;;;;118.20;58.38;;;;;;;16.76;89.80;100960.28;5006453;28;20105;-43
2021/09/15 05:29:39;;;;;;;118.47;57.35;;;;;;;16.75;89.81;100955.91;5010792;28;20112;-43
2021/09/15 05:32:04;;;;;;;129.15;59.75;;;;;;;16.77;89.82;100953.84;5010431;28;20026;-43
2021/09/15 05:34:30;;;;;;;114.35;56.05;;;;;;;16.75;89.66;100953.19;5010450;28;20030;-44
2021/09/15 05:36:55;;;;;;;116.15;58.03;;;;;;;16.72;89.58;100955.50;5006382;28;20033;-44
2021/09/15 05:39:20;;;;;;;117.97;54.75;;;;;;;16.70;89.71;100963.06;5012225;28;20030;-42
2021/09/15 05:41:46;;;;;;;118.75;58.28;;;;;;;16.69;89.71;100956.78;5010414;28;20041;-43
2021/09/15 05:44:11;;;;;;;119.90;57.50;;;;;;;16.67;89.60;100953.47;5015345;28;20041;-44
2021/09/15 05:46:37;;;;;;;123.10;59.45;;;;;;;16.67;89.82;100964.34;5006576;28;20029;-43
2021/09/15 05:49:05;;;;;;;128.13;59.42;;;;;;;16.68;89.62;100971.44;5011973;28;20036;-43
2021/09/15 05:51:31;;;;;;;131.07;61.72;;;;;;;16.70;89.80;100974.75;5003063;28;20080;-43
2021/09/15 05:53:56;;;;;;;130.52;61.03;;;;;;;16.70;89.80;100966.59;5009154;28;20034;-44
2021/09/15 05:56:21;;;;;;;130.63;61.47;;;;;;;16.73;89.73;100984.38;5011508;28;20441;-44
2021/09/15 05:58:47;;;;;;;131.43;60.25;;;;;;;16.75;89.61;100984.97;5006429;28;20503;-44
2021/09/15 06:01:12;;;;;;;125.47;60.15;;;;;;;16.80;89.59;100986.03;5007392;28;20030;-42
2021/09/15 06:03:38;;;;;;;125.63;59.08;;;;;;;16.85;89.51;100982.63;5010356;28;20473;-43
2021/09/15 06:06:04;;;;;;;110.40;56.38;;;;;;;16.94;89.20;100985.94;5006178;28;20124;-42
2021/09/15 06:08:29;;;;;;;102.55;52.75;;;;;;;17.03;88.76;100984.59;5012326;28;20445;-42
2021/09/15 06:10:56;;;;;;;101.38;52.42;;;;;;;17.15;88.40;100990.97;5006161;28;20026;-42
2021/09/15 06:13:21;;;;;;;99.78;52.35;;;;;;;17.26;87.77;100979.38;5009176;28;20113;-44
2021/09/15 06:15:47;;;;;;;93.50;50.47;;;;;;;17.39;87.52;100989.31;5009015;28;20128;-42
2021/09/15 06:18:12;;;;;;;92.72;49.97;;;;;;;17.55;87.13;100986.00;5008330;28;20018;-42
2021/09/15 06:20:37;;;;;;;82.13;46.85;;;;;;;17.69;86.96;100989.44;5010665;28;20060;-43
2021/09/15 06:23:04;;;;;;;80.97;46.75;;;;;;;17.79;86.12;100999.81;5009755;28;20026;-44
2021/09/15 06:25:29;;;;;;;74.65;43.63;;;;;;;17.87;85.52;100996.78;5011364;28;20460;-45
2021/09/15 06:27:56;;;;;;;72.93;43.72;;;;;;;18.03;85.41;100995.34;5010469;28;20113;-45
2021/09/15 06:30:21;;;;;;;62.78;41.70;;;;;;;18.19;84.88;101000.22;5008837;28;20125;-44
2021/09/15 06:32:47;;;;;;;61.78;39.97;;;;;;;18.32;84.25;100995.63;5007577;28;20073;-44
2021/09/15 06:35:12;;;;;;;56.17;36.35;;;;;;;18.45;83.44;100997.34;5004397;28;20092;-43
2021/09/15 06:37:39;;;;;;;47.28;30.80;;;;;;;18.58;81.96;101003.44;5003231;28;20473;-44
2021/09/15 06:40:05;;;;;;;44.50;30.77;;;;;;;18.59;82.11;101002.41;5000869;28;20038;-44
2021/09/15 06:42:30;;;;;;;39.28;27.23;;;;;;;18.55;80.73;100998.47;5000266;28;20313;-44
2021/09/15 06:44:56;;;;;;;37.08;25.05;;;;;;;18.74;80.94;101006.59;5009137;28;20045;-43
2021/09/15 06:47:22;;;;;;;31.23;21.60;;;;;;;19.24;77.96;101012.53;5005829;28;20184;-43
2021/09/15 06:49:47;;;;;;;29.08;19.90;;;;;;;19.59;76.05;101009.03;4999882;28;20058;-43
2021/09/15 06:52:12;;;;;;;27.25;18.60;;;;;;;19.47;75.94;101019.09;5011003;28;20030;-42
2021/09/15 06:54:38;;;;;;;26.48;15.93;;;;;;;19.35;75.93;101016.34;5009986;28;20088;-44
2021/09/15 06:57:03;;;;;;;21.35;16.40;;;;;;;19.17;76.40;101017.31;5011817;28;20064;-42
2021/09/15 06:59:28;;;;;;;22.60;15.82;;;;;;;18.93;76.36;101015.56;5011160;28;20087;-43
2021/09/15 07:01:54;;;;;;;22.75;16.15;;;;;;;18.79;77.23;101023.13;5010467;28;20022;-43
2021/09/15 07:04:19;;;;;;;21.73;14.73;;;;;;;18.68;76.54;101016.53;5006681;28;20025;-43
2021/09/15 07:06:44;;;;;;;18.88;14.15;;;;;;;18.59;77.53;101020.66;5005731;28;20026;-43
2021/09/15 07:09:10;;;;;;;21.48;13.57;;;;;;;18.57;77.78;101015.44;5009826;28;20034;-45
2021/09/15 07:11:35;;;;;;;24.13;13.63;;;;;;;18.59;78.07;101021.47;5008610;28;20109;-43
2021/09/15 07:14:03;;;;;;;16.77;12.02;;;;;;;18.52;77.37;101026.19;5008573;28;20061;-43
2021/09/15 07:16:29;;;;;;;14.32;11.13;;;;;;;18.47;77.17;101030.66;5009282;28;20413;-45
2021/09/15 07:18:55;;;;;;;17.20;11.05;;;;;;;18.48;77.43;101033.16;5010557;28;20092;-45
2021/09/15 07:21:20;;;;;;;20.08;11.32;;;;;;;18.46;77.80;101028.97;5012216;28;20025;-45
2021/09/15 07:23:46;;;;;;;15.65;10.63;;;;;;;18.40;77.59;101033.47;5014241;28;20025;-44
2021/09/15 07:26:11;;;;;;;12.68;10.75;;;;;;;18.20;77.62;101034.56;5012325;28;20045;-45
2021/09/15 07:28:36;;;;;;;16.60;11.68;;;;;;;18.07;77.50;101029.25;5007112;28;20034;-43
2021/09/15 07:31:02;;;;;;;17.00;10.57;;;;;;;18.09;78.12;101026.28;5008562;28;20037;-42
2021/09/15 07:33:32;;;;;;;13.30;10.20;;;;;;;18.09;77.58;101021.69;5010608;28;20123;-44
2021/09/15 07:35:57;;;;;;;15.57;9.50;;;;;;;18.02;77.75;101023.66;5010392;28;20073;-44
2021/09/15 07:38:23;;;;;;;11.45;7.90;;;;;;;18.02;77.77;101020.94;5015186;28;20109;-43
2021/09/15 07:40:48;;;;;;;15.13;8.32;;;;;;;17.94;77.09;101023.97;5007272;28;20073;-43
2021/09/15 07:43:13;;;;;;;15.77;8.50;;;;;;;17.90;77.81;101017.28;5013319;28;20022;-43
2021/09/15 07:45:39;;;;;;;12.65;6.88;;;;;;;17.86;76.93;101010.66;5014816;28;20036;-43
2021/09/15 07:48:04;;;;;;;14.15;7.38;;;;;;;17.88;77.74;101014.00;5014601;28;20029;-44
2021/09/15 07:50:29;;;;;;;10.32;7.03;;;;;;;17.86;76.74;101008.75;5008007;28;20216;-43
2021/09/15 07:52:55;;;;;;;20.55;7.70;;;;;;;17.85;76.65;101011.69;5014117;28;20076;-44
2021/09/15 07:55:20;;;;;;;10.95;6.93;;;;;;;17.94;76.87;101019.34;5014716;28;20097;-44
2021/09/15 07:57:47;;;;;;;14.38;6.63;;;;;;;17.86;76.70;101005.22;5014380;28;20116;-43
2021/09/15 08:00:13;;;;;;;13.98;6.88;;;;;;;17.94;76.93;100997.56;5009492;28;20030;-43
2021/09/15 08:02:38;;;;;;;22.48;7.05;;;;;;;17.97;77.01;101001.72;5011712;28;20107;-43
2021/09/15 08:05:04;;;;;;;10.73;5.70;;;;;;;17.90;76.16;101000.97;5014501;28;20033;-43
2021/09/15 08:07:29;;;;;;;14.60;6.10;;;;;;;17.92;76.74;101001.56;5014399;28;20061;-42
2021/09/15 08:09:55;;;;;;;13.95;5.80;;;;;;;17.86;76.31;101002.47;5014045;28;20395;-43
2021/09/15 08:12:20;;;;;;;17.63;6.10;;;;;;;17.92;76.63;100993.41;5028287;28;20117;-43
2021/09/15 08:14:45;;;;;;;9.93;4.57;;;;;;;17.95;75.96;100992.94;5013022;28;20036;-43
2021/09/15 08:17:11;;;;;;;13.77;5.10;;;;;;;17.95;76.63;100988.31;5014254;28;20504;-44
2021/09/15 08:19:36;;;;;;;13.38;5.57;;;;;;;18.01;76.52;100996.63;5010264;28;20057;-42
2021/09/15 08:22:02;;;;;;;11.95;4.55;;;;;;;17.98;75.99;100990.63;5007521;28;20034;-43
2021/09/15 08:24:27;;;;;;;10.38;3.47;;;;;;;17.97;75.69;100994.38;5014340;28;20366;-42
2021/09/15 08:26:53;;;;;;;12.90;3.30;;;;;;;18.00;75.33;100990.38;5012506;28;20034;-43
2021/09/15 08:29:18;;;;;;;8.60;2.85;;;;;;;18.10;75.56;100990.66;5007825;28;20034;-43
2021/09/15 08:31:43;;;;;;;7.00;2.50;;;;;;;18.19;75.36;100994.75;5014152;28;20048;-41
2021/09/15 08:34:09;;;;;;;6.78;1.73;;;;;;;18.18;75.32;100998.53;5013312;28;20088;-43
2021/09/15 08:36:34;;;;;;;7.97;1.65;;;;;;;18.24;74.90;101002.22;5028677;28;20030;-43
2021/09/15 08:38:59;;;;;;;10.50;2.20;;;;;;;18.29;74.98;101001.53;5011867;28;20030;-42
2021/09/15 08:41:25;;;;;;;7.05;2.28;;;;;;;18.27;73.91;101000.94;5023239;28;20033;-43
2021/09/15 08:43:51;;;;;;;7.03;2.10;;;;;;;18.36;74.14;100992.22;5012677;28;20106;-42
2021/09/15 08:46:20;;;;;;;6.72;1.70;;;;;;;18.24;74.39;101004.13;5012952;28;20041;-43
2021/09/15 08:48:46;;;;;;;8.68;1.70;;;;;;;18.28;75.47;101002.63;5012287;28;20091;-43
2021/09/15 08:51:13;;;;;;;7.90;1.65;;;;;;;18.22;75.53;101004.38;5011765;28;20030;-41
2021/09/15 08:53:42;;;;;;;8.25;2.13;;;;;;;18.16;76.03;100995.19;5007120;28;20037;-42
2021/09/15 08:56:07;;;;;;;10.27;1.70;;;;;;;18.19;75.43;101008.38;5011478;28;20056;-42
2021/09/15 08:58:33;;;;;;;9.80;1.80;;;;;;;18.21;75.71;101019.03;5013690;28;20373;-43
2021/09/15 09:01:07;;;;;;;12.48;2.50;;;;;;;18.30;75.59;101016.81;5012435;28;20033;-43
2021/09/15 09:03:39;;;;;;;8.07;1.98;;;;;;;18.34;74.75;101012.59;5013237;28;20034;-43
2021/09/15 09:06:12;;;;;;;9.60;2.13;;;;;;;18.30;75.01;101017.69;5004559;28;20053;-43
2021/09/15 09:08:39;;;;;;;7.88;1.90;;;;;;;18.38;74.34;101016.53;5009265;28;20030;-43
2021/09/15 09:11:06;;;;;;;10.85;1.52;;;;;;;18.49;73.92;101015.75;5010038;28;20026;-42
2021/09/15 09:13:33;;;;;;;7.18;1.80;;;;;;;18.53;74.42;101025.13;5007834;28;20040;-43
2021/09/15 09:15:58;;;;;;;10.25;2.00;;;;;;;18.56;73.69;101019.22;5006865;28;20468;-44
2021/09/15 09:18:24;;;;;;;9.13;1.80;;;;;;;18.68;74.09;101015.72;5013649;28;20061;-43
2021/09/15 09:20:49;;;;;;;8.13;2.00;;;;;;;18.73;74.11;101022.13;5012457;28;20045;-42
2021/09/15 09:23:18;;;;;;;13.05;2.67;;;;;;;18.79;73.80;101034.84;5027246;28;20022;-42
2021/09/15 09:25:53;;;;;;;9.25;2.50;;;;;;;18.76;73.36;101032.59;5012115;28;20083;-43
2021/09/15 09:28:31;;;;;;;12.43;2.45;;;;;;;18.77;74.17;101022.50;5011086;28;20073;-44
2021/09/15 09:30:57;;;;;;;;;;;;;;;18.68;74.65;101023.88;5026405;28;20030;-43
2021/09/15 09:33:22;;;;;;;14.52;2.55;;;;;;;18.67;74.28;101030.38;5013617;28;19913;-43
2021/09/15 09:35:56;;;;;;;13.27;2.22;;;;;;;18.71;73.65;101034.31;5013077;28;20022;-44
2021/09/15 09:38:26;;;;;;;6.82;1.92;;;;;;;18.75;73.76;101035.56;5013588;28;20060;-43
2021/09/15 09:41:09;;;;;;;6.70;2.20;;;;;;;18.78;73.79;101035.09;5007203;28;20036;-43
2021/09/15 09:43:40;;;;;;;11.73;1.83;;;;;;;18.84;73.96;101031.44;5012672;28;20041;-44
2021/09/15 09:46:08;;;;;;;12.52;2.20;;;;;;;18.90;73.28;101038.69;5012956;28;20033;-43
2021/09/15 09:48:35;;;;;;;12.60;2.58;;;;;;;18.93;73.16;101040.97;5014181;28;20050;-43
2021/09/15 09:51:04;;;;;;;7.75;2.42;;;;;;;18.94;72.85;101045.34;5012213;28;20038;-44
2021/09/15 09:53:30;;;;;;;9.77;2.42;;;;;;;18.98;72.92;101049.25;5011256;28;20049;-43
2021/09/15 09:55:57;;;;;;;13.25;2.75;;;;;;;19.01;73.15;101048.81;5012202;28;20037;-44
2021/09/15 09:58:26;;;;;;;9.48;2.30;;;;;;;19.13;72.42;101045.28;5002589;28;20054;-44
2021/09/15 10:00:56;;;;;;;16.75;3.10;;;;;;;19.13;72.71;101048.84;5005846;28;20061;-43
2021/09/15 10:03:23;;;;;;;15.05;2.75;;;;;;;19.14;72.54;101049.66;5011884;28;20397;-44
2021/09/15 10:05:49;;;;;;;5.78;2.40;;;;;;;19.16;73.27;101053.81;5012247;28;20030;-43
2021/09/15 10:08:18;;;;;;;10.57;2.58;;;;;;;19.21;73.48;101047.66;5013563;28;20109;-43
2021/09/15 10:10:47;;;;;;;9.43;3.20;;;;;;;19.31;73.25;101056.09;5027492;28;20037;-43
2021/09/15 10:13:12;;;;;;;8.43;2.90;;;;;;;19.39;72.35;101055.75;5011719;28;20056;-44
2021/09/15 10:15:54;;;;;;;11.48;2.90;;;;;;;19.53;71.59;101051.72;5012858;28;20069;-44
2021/09/15 10:18:20;;;;;;;11.65;2.97;;;;;;;19.71;71.83;101059.00;5012465;28;20057;-43
2021/09/15 10:20:48;;;;;;;10.38;2.90;;;;;;;19.81;69.97;101039.31;5010391;28;20076;-43
2021/09/15 10:23:39;;;;;;;15.35;3.45;;;;;;;19.93;69.36;101042.88;5006436;28;20057;-44
2021/09/15 10:26:26;;;;;;;11.45;2.88;;;;;;;20.13;68.16;101041.66;5011847;28;20029;-45
2021/09/15 10:29:20;;;;;;;11.95;3.05;;;;;;;20.06;68.89;101049.13;5011543;28;20025;-43
2021/09/15 10:31:49;;;;;;;11.63;2.67;;;;;;;19.93;69.69;101042.03;5011437;28;20038;-44
2021/09/15 10:34:35;;;;;;;13.75;3.80;;;;;;;19.98;69.46;101039.41;5011700;28;20499;-43
2021/09/15 10:37:01;;;;;;;13.90;3.17;;;;;;;20.02;68.57;101042.50;5011358;28;20088;-43
2021/09/15 10:39:28;;;;;;;11.00;3.22;;;;;;;20.00;69.18;101042.72;5011911;28;20092;-43
2021/09/15 10:41:54;;;;;;;13.77;3.03;;;;;;;19.85;69.95;101043.25;5009388;28;20040;-44
2021/09/15 10:44:21;;;;;;;5.78;2.58;;;;;;;19.74;71.14;101046.78;5011692;28;20503;-44
2021/09/15 10:46:47;;;;;;;10.88;2.83;;;;;;;19.62;71.02;101045.94;5011822;28;20030;-44
2021/09/15 10:49:19;;;;;;;11.23;3.20;;;;;;;19.60;70.38;101045.34;5011063;28;20049;-43
2021/09/15 10:52:10;;;;;;;9.77;2.90;;;;;;;19.55;70.19;101056.13;4993831;28;20030;-43
2021/09/15 10:54:55;;;;;;;5.22;2.20;;;;;;;19.37;70.82;101060.63;5011884;28;20105;-43
2021/09/15 10:57:27;;;;;;;8.70;3.30;;;;;;;19.38;70.71;101066.91;5004060;28;20026;-43
2021/09/15 11:00:13;;;;;;;8.15;2.72;;;;;;;19.40;70.89;101071.06;5012021;28;20496;-43
2021/09/15 11:02:41;;;;;;;12.05;3.10;;;;;;;19.56;70.27;101061.34;5004384;28;20041;-43
2021/09/15 11:05:25;;;;;;;10.38;3.38;;;;;;;19.56;69.74;101068.72;5016251;28;20482;-43
2021/09/15 11:07:50;;;;;;;5.07;2.65;;;;;;;19.74;70.26;101066.72;5011486;28;20119;-43
2021/09/15 11:10:33;;;;;;;9.40;3.10;;;;;;;20.14;69.22;101071.47;5011071;28;20105;-43
2021/09/15 11:13:08;;;;;;;5.82;2.65;;;;;;;20.31;68.49;101068.81;5011562;28;20038;-43
2021/09/15 11:15:42;;;;;;;10.63;3.00;;;;;;;20.41;67.84;101065.47;5006931;28;20037;-43